Gunnison, CO

5:24 PM MDT on July 06, 2015 (GMT -0600)
Taylor St. | | Change Station
CLOSE
Current Station
Personal Weather Station
Location: Gunnison, CO
Elevation: 7687 ft
Nearby Weather Stations
Active Advisory: Areal Flood Advisory Active Notice: Public Information Statement

Elev 7687 ft 38.54 °N, 106.92 °W | Updated 14 minutes ago

Clear
Clear
67.3 °F
Feels Like 67.3 °F
N
5.3
Wind Variable Wind from North

Today
High -- | Low -- °F
--% Chance of Precip.
Yesterday
High -- | Low -- °F
Precip. -- in
5:49 AM 8:35 PM
Waning Gibbous, 71% visible
Pressure 30.31 in
Visibility 10.0 miles
Clouds Clear
Dew Point 55 °F
Humidity 64%
Rainfall 0.00 in
Snow Depth Not available.
UV 5 out of 12
Pollen 3.20 out of 12
Air Quality Not available.
Flu Activity Not available.
METAR KGUC 062315Z 02009G14KT 10SM CLR 19/07 A3031 RMK AO1

More Conditions Fewer Conditions

Pressure 30.31 in
Visibility 10.0 miles
Clouds Clear
Dew Point 55 °F
Humidity 64%
Rainfall 0.00 in
Snow Depth Not available.
UV 5 out of 12
Pollen 3.20 out of 12
Air Quality Not available.
Flu Activity Not available.
METAR KGUC 062315Z 02009G14KT 10SM CLR 19/07 A3031 RMK AO1

More Conditions Fewer Conditions

10-Day Weather Forecast

×

Almanac

Astronomy

Jul. 06, 2015 Rise Set
Actual Time
Civil Twilight
Nautical Twilight
Astronomical Twilight
Moon
Length of Visible Light
Length of Day
Tomorrow will be .
, % of the Moon is Illuminated

Today's Extremes

State Highs State Lows

Community

WunderPhotos

Upload Photos

1,835,674 photos uploaded!

WunderBlogs® & News

Nearby

Air Quality

  Air Quality AQ Index Pollutant
Not available.

Snow Depth

Station Depth Elevation

Earthquake Activity

City Distance Mag. Time & Date
Minimum magnitude displayed is 2.5.

Coastal Water Temperatures

Place Temperature

Stations

Nearby Weather Stations

Station Location Temp. Windchill Dew Point Humidity Wind Precip. Elev Updated Type
                   
Areal Flood Advisory
Statement as of 4:16 PM MDT on July 06, 2015

... The Flood Advisory remains in effect until 600 PM MDT for
southwestern Montrose and northeastern San Juan counties...

At 415 PM MDT... Doppler radar indicated heavy rain due to
thunderstorms had ended in the advisory area. But draining water
could still be producing minor flooding in the advisory area.

Some locations that will experience flooding include...
La Sal.

Lat... Lon 3829 10918 3822 10909 3825 10897 3822 10895
      3819 10908 3824 10924


Joe